Lake Lincoln, Indiana
Current Conditions -  °F | °C
As of 9:35 AM on Thursday 30 Oct 2014 (Local Time) from KHNB Reporting Station
Clear Clear  
Wind Chill: 46°   Ceiling: Unl
Heat Index: 46°   Visibility: 10mi
Dew Point: 39°   Wind: 3mph
Humidity: 76%   Direction: 130°SE
Pressure: 30.19"   Gusts: NA
Location:  38.1283°N, 86.9862°W
Report Text: KHNB 301435Z AUTO 13003KT 10SM CLR 08/04 A3019 RMK AO1
Loading
Personal Weather Stations






























Interactive Weather Map
Tropical Storm Tracking
New forecast layout! Learn more

10-Day Weather Forecast

Advertisements
Track Severe Weather on mobile